Royal Slope, Washington
Current Conditions -  °F | °C
As of 8:52 PM on Friday 28 Nov 2014 (Local Time) from KMWH Reporting Station
Few Clouds Few Clouds  
Wind Chill: 41°   Ceiling: Unl
Heat Index: 46°   Visibility: 10mi
Dew Point: 39°   Wind: 10mph
Humidity: 76%   Direction: 210°SSW
Pressure: 29.3"   Gusts: NA
Location:  46.7797°N, 119.403°W
Report Text: KMWH 290452Z 21009KT 10SM FEW050 FEW120 08/04 A2930 RMK AO2 SLP923 T00780039
Loading
Personal Weather Stations






























Interactive Weather Map New forecast layout! Learn more

10-Day Weather Forecast

Advertisements
Track Severe Weather on mobile